createdAt,value
2017-05-04T00:00:26.826Z,19.13
2017-05-04T00:01:40.625Z,19.1
2017-05-04T00:02:55.596Z,19.15
2017-05-04T00:04:09.563Z,19.23
2017-05-04T00:05:23.153Z,19.23
2017-05-04T00:06:37.432Z,19.16
2017-05-04T00:07:51.565Z,19.16
2017-05-04T00:09:05.317Z,19.17
2017-05-04T00:10:19.218Z,19.13
2017-05-04T00:11:33.615Z,19.15
2017-05-04T00:12:47.481Z,19.13
2017-05-04T00:14:01.862Z,19.15
2017-05-04T00:15:15.741Z,19.2
2017-05-04T00:16:29.605Z,19.13
2017-05-04T00:17:43.958Z,19.12
2017-05-04T00:18:58.501Z,19.13
2017-05-04T00:20:13.022Z,19.16
2017-05-04T00:21:27.378Z,19.12
2017-05-04T00:22:41.642Z,19.15
2017-05-04T00:23:55.428Z,19.07
2017-05-04T00:25:09.127Z,19.07
2017-05-04T00:26:23.346Z,19.02
2017-05-04T00:27:37.047Z,19.01
2017-05-04T00:28:51.370Z,19.07
2017-05-04T00:30:05.714Z,19.12
2017-05-04T00:31:19.530Z,19.2
2017-05-04T00:32:33.879Z,19.07
2017-05-04T00:33:47.703Z,19.12
2017-05-04T00:35:01.992Z,19.12
2017-05-04T00:36:16.435Z,19.05
2017-05-04T00:37:30.962Z,19.15
2017-05-04T00:38:44.903Z,19.05
2017-05-04T00:39:59.273Z,19.13
2017-05-04T00:41:13.816Z,19.1
2017-05-04T00:42:28.147Z,19.16
2017-05-04T00:43:42.597Z,19.16
2017-05-04T00:44:57.147Z,19.15
2017-05-04T00:46:10.658Z,19.07
2017-05-04T00:47:24.367Z,19.13
2017-05-04T00:48:36.275Z,19.02
2017-05-04T00:49:49.063Z,18.97
2017-05-04T00:51:02.049Z,18.91
2017-05-04T00:52:14.350Z,18.97
2017-05-04T00:53:26.653Z,18.99
2017-05-04T00:54:38.954Z,18.97
2017-05-04T00:55:51.741Z,18.91
2017-05-04T00:57:04.820Z,18.94
2017-05-04T00:58:17.601Z,18.89
2017-05-04T00:59:30.379Z,18.86
2017-05-04T01:00:43.168Z,18.84
2017-05-04T01:01:55.946Z,18.94
2017-05-04T01:03:08.735Z,18.94
2017-05-04T01:04:21.033Z,18.96
2017-05-04T01:05:33.816Z,18.96
2017-05-04T01:06:46.609Z,18.96
2017-05-04T01:07:59.113Z,18.96
2017-05-04T01:09:11.896Z,18.97
2017-05-04T01:10:24.196Z,19.1
2017-05-04T01:11:36.982Z,19.12
2017-05-04T01:12:49.765Z,19.01
2017-05-04T01:14:02.548Z,19.13
2017-05-04T01:15:13.882Z,19.02
2017-05-04T01:16:26.662Z,19.09
2017-05-04T01:17:38.964Z,19.07
2017-05-04T01:19:05.342Z,19.07
2017-05-04T01:20:18.128Z,19.06
2017-05-04T01:21:30.912Z,19.07
2017-05-04T01:22:43.212Z,19.1
2017-05-04T01:23:55.991Z,19.05
2017-05-04T01:25:08.293Z,19.07
2017-05-04T01:26:20.111Z,19.09
2017-05-04T01:27:32.413Z,18.97
2017-05-04T01:28:45.474Z,19.1
2017-05-04T01:29:58.261Z,18.99
2017-05-04T01:31:11.040Z,18.96
2017-05-04T01:32:23.820Z,18.97
2017-05-04T01:33:36.601Z,18.96
2017-05-04T01:34:49.386Z,18.96
2017-05-04T01:36:02.174Z,19.05
2017-05-04T01:37:14.484Z,18.99
2017-05-04T01:38:27.295Z,18.94
2017-05-04T01:39:40.330Z,18.94
2017-05-04T01:40:53.124Z,18.96
2017-05-04T01:42:05.434Z,18.96
2017-05-04T01:43:18.257Z,19.01
2017-05-04T01:44:31.060Z,18.96
2017-05-04T01:45:43.859Z,18.91
2017-05-04T01:46:56.651Z,18.99
2017-05-04T01:48:09.444Z,19.02
2017-05-04T01:49:21.757Z,19.01
2017-05-04T01:50:34.548Z,18.94
2017-05-04T01:51:47.334Z,18.93
2017-05-04T01:53:00.126Z,18.91
2017-05-04T01:54:12.443Z,18.93
2017-05-04T01:55:25.234Z,18.94
2017-05-04T01:56:38.338Z,18.96
2017-05-04T01:57:51.135Z,18.91
2017-05-04T01:59:03.944Z,18.87
2017-05-04T02:00:16.732Z,18.91
2017-05-04T02:01:29.039Z,18.9
2017-05-04T02:02:41.832Z,18.83
2017-05-04T02:03:54.623Z,18.84
2017-05-04T02:05:07.413Z,18.79
2017-05-04T02:06:20.205Z,18.9
2017-05-04T02:07:32.992Z,18.87
2017-05-04T02:08:45.789Z,18.83
2017-05-04T02:09:58.589Z,18.84
2017-05-04T02:11:10.896Z,18.9
2017-05-04T02:12:23.688Z,18.86
2017-05-04T02:13:36.001Z,18.84
2017-05-04T02:14:48.809Z,18.82
2017-05-04T02:16:01.598Z,18.83
2017-05-04T02:17:14.387Z,18.68
2017-05-04T02:18:41.275Z,18.65
2017-05-04T02:19:54.065Z,18.69
2017-05-04T02:21:06.858Z,18.66
2017-05-04T02:22:19.165Z,18.66
2017-05-04T02:23:31.946Z,18.66
2017-05-04T02:24:44.733Z,18.66
2017-05-04T02:25:57.516Z,18.66
2017-05-04T02:27:10.297Z,18.65
2017-05-04T02:28:23.329Z,18.76
2017-05-04T02:29:36.116Z,18.72
2017-05-04T02:30:48.414Z,18.76
2017-05-04T02:32:01.199Z,18.79
2017-05-04T02:33:13.989Z,18.79
2017-05-04T02:34:26.490Z,18.79
2017-05-04T02:35:39.299Z,18.82
2017-05-04T02:36:52.083Z,18.75
2017-05-04T02:38:04.386Z,18.82
2017-05-04T02:39:16.687Z,18.66
2017-05-04T02:40:29.473Z,18.75
2017-05-04T02:41:42.260Z,18.66
2017-05-04T02:42:55.054Z,18.72
2017-05-04T02:44:07.359Z,18.64
2017-05-04T02:45:20.374Z,18.78
2017-05-04T02:46:33.162Z,18.78
2017-05-04T02:47:45.954Z,18.79
2017-05-04T02:48:58.746Z,18.79
2017-05-04T02:50:11.737Z,18.75
2017-05-04T02:51:24.521Z,18.83
2017-05-04T02:52:37.304Z,18.69
2017-05-04T02:53:50.095Z,18.68
2017-05-04T02:55:02.397Z,18.71
2017-05-04T02:56:15.383Z,18.64
2017-05-04T02:57:28.168Z,18.64
2017-05-04T02:58:40.467Z,18.68
2017-05-04T02:59:53.253Z,18.64
2017-05-04T03:01:05.074Z,18.65
2017-05-04T03:02:17.850Z,18.71
2017-05-04T03:03:30.643Z,18.69
2017-05-04T03:04:43.426Z,18.68
2017-05-04T03:05:56.211Z,18.68
2017-05-04T03:07:09.307Z,18.71
2017-05-04T03:08:21.613Z,18.68
2017-05-04T03:09:34.403Z,18.69
2017-05-04T03:10:47.197Z,18.76
2017-05-04T03:12:00.291Z,18.76
2017-05-04T03:13:12.608Z,18.62
2017-05-04T03:14:25.406Z,18.66
2017-05-04T03:15:37.722Z,18.64
2017-05-04T03:16:50.516Z,18.64
2017-05-04T03:18:03.309Z,18.57
2017-05-04T03:19:16.110Z,18.6
2017-05-04T03:20:28.907Z,18.57
2017-05-04T03:21:41.695Z,18.51
2017-05-04T03:22:54.484Z,18.49
2017-05-04T03:24:07.274Z,18.39
2017-05-04T03:25:19.578Z,18.36
2017-05-04T03:26:31.887Z,18.39
2017-05-04T03:27:44.675Z,18.39
2017-05-04T03:28:57.463Z,18.41
2017-05-04T03:30:09.770Z,18.44
2017-05-04T03:31:22.574Z,18.44
2017-05-04T03:32:35.367Z,18.47
2017-05-04T03:33:48.163Z,18.47
2017-05-04T03:35:00.471Z,18.49
2017-05-04T03:36:12.782Z,18.5
2017-05-04T03:37:25.604Z,18.51
2017-05-04T03:38:37.915Z,18.5
2017-05-04T03:39:50.701Z,18.51
2017-05-04T03:41:03.497Z,18.5
2017-05-04T03:42:16.290Z,18.46
2017-05-04T03:43:28.597Z,18.46
2017-05-04T03:44:39.935Z,18.41
2017-05-04T03:45:52.731Z,18.47
2017-05-04T03:47:05.526Z,18.46
2017-05-04T03:48:18.321Z,18.49
2017-05-04T03:49:30.631Z,18.47
2017-05-04T03:50:43.445Z,18.54
2017-05-04T03:51:56.234Z,18.53
2017-05-04T03:53:09.017Z,18.53
2017-05-04T03:54:21.318Z,18.53
2017-05-04T03:55:34.403Z,18.51
2017-05-04T03:56:47.187Z,18.5
2017-05-04T03:57:59.967Z,18.56
2017-05-04T03:59:12.263Z,18.6
2017-05-04T04:00:24.566Z,18.56
2017-05-04T04:01:37.347Z,18.49
2017-05-04T04:02:50.133Z,18.5
2017-05-04T04:04:02.933Z,18.53
2017-05-04T04:05:15.719Z,18.51
2017-05-04T04:06:28.499Z,18.38
2017-05-04T04:07:41.285Z,18.42
2017-05-04T04:08:53.586Z,18.49
2017-05-04T04:10:05.889Z,18.46
2017-05-04T04:11:17.708Z,18.41
2017-05-04T04:12:30.787Z,18.46
2017-05-04T04:13:43.574Z,18.47
2017-05-04T04:14:56.396Z,18.51
2017-05-04T04:16:09.749Z,18.53
2017-05-04T04:17:22.078Z,18.46
2017-05-04T04:18:34.399Z,18.42
2017-05-04T04:19:46.699Z,18.42
2017-05-04T04:20:59.003Z,18.39
2017-05-04T04:22:11.787Z,18.36
2017-05-04T04:23:24.569Z,18.35
2017-05-04T04:24:36.869Z,18.34
2017-05-04T04:25:49.649Z,18.36
2017-05-04T04:27:02.428Z,18.41
2017-05-04T04:28:15.413Z,18.29
2017-05-04T04:29:28.200Z,18.32
2017-05-04T04:30:40.022Z,18.26
2017-05-04T04:31:52.810Z,18.32
2017-05-04T04:33:05.593Z,18.34
2017-05-04T04:34:18.192Z,18.34
2017-05-04T04:35:30.495Z,18.38
2017-05-04T04:36:42.794Z,18.35
2017-05-04T04:37:55.101Z,18.19
2017-05-04T04:39:07.883Z,18.23
2017-05-04T04:40:20.662Z,18.21
2017-05-04T04:41:33.444Z,18.21
2017-05-04T04:42:46.234Z,18.19
2017-05-04T04:43:59.029Z,18.21
2017-05-04T04:45:11.635Z,18.32
2017-05-04T04:46:24.411Z,18.29
2017-05-04T04:47:35.756Z,18.31
2017-05-04T04:48:48.541Z,18.42
2017-05-04T04:50:01.038Z,18.31
2017-05-04T04:51:13.335Z,18.31
2017-05-04T04:52:25.631Z,18.32
2017-05-04T04:53:38.409Z,18.35
2017-05-04T04:54:50.710Z,18.25
2017-05-04T04:56:03.495Z,18.31
2017-05-04T04:57:16.278Z,18.32
2017-05-04T04:58:29.062Z,18.23
2017-05-04T04:59:41.369Z,18.35
2017-05-04T05:00:54.152Z,18.29
2017-05-04T05:02:06.933Z,18.35
2017-05-04T05:03:19.231Z,18.38
2017-05-04T05:04:32.013Z,18.29
2017-05-04T05:05:44.832Z,18.34
2017-05-04T05:06:57.432Z,18.34
2017-05-04T05:08:09.735Z,18.36
2017-05-04T05:09:22.037Z,18.32
2017-05-04T05:10:34.824Z,18.38
2017-05-04T05:11:47.807Z,18.35
2017-05-04T05:13:00.104Z,18.29
2017-05-04T05:14:12.409Z,18.34
2017-05-04T05:15:25.192Z,18.35
2017-05-04T05:16:37.971Z,18.35
2017-05-04T05:17:50.272Z,18.25
2017-05-04T05:19:03.070Z,18.2
2017-05-04T05:20:15.368Z,18.29
2017-05-04T05:21:28.147Z,18.21
2017-05-04T05:22:41.226Z,18.2
2017-05-04T05:23:54.008Z,18.16
2017-05-04T05:25:06.311Z,18.11
2017-05-04T05:26:18.613Z,18.11
2017-05-04T05:27:31.394Z,18.13
2017-05-04T05:28:43.903Z,18.01
2017-05-04T05:29:56.205Z,17.98
2017-05-04T05:31:08.984Z,18.02
2017-05-04T05:32:21.769Z,17.91
2017-05-04T05:33:34.849Z,17.87
2017-05-04T05:34:47.159Z,17.86
2017-05-04T05:35:59.939Z,17.91
2017-05-04T05:37:12.239Z,17.98
2017-05-04T05:38:25.018Z,17.91
2017-05-04T05:39:38.102Z,18.02
2017-05-04T05:40:50.403Z,17.96
2017-05-04T05:42:03.186Z,17.99
2017-05-04T05:43:15.008Z,18.01
2017-05-04T05:44:27.989Z,17.99
2017-05-04T05:45:40.770Z,18.02
2017-05-04T05:46:53.558Z,17.99
2017-05-04T05:48:06.339Z,18.01
2017-05-04T05:49:19.121Z,18.02
2017-05-04T05:50:31.901Z,17.91
2017-05-04T05:51:43.719Z,17.86
2017-05-04T05:52:56.499Z,17.86
2017-05-04T05:54:09.282Z,17.77
2017-05-04T05:55:21.580Z,17.87
2017-05-04T05:56:34.357Z,17.87
2017-05-04T05:57:46.176Z,17.87
2017-05-04T05:58:58.956Z,17.92
2017-05-04T06:00:11.737Z,17.84
2017-05-04T06:01:24.820Z,17.92
2017-05-04T06:02:37.603Z,17.84
2017-05-04T06:03:50.384Z,17.87
2017-05-04T06:05:03.175Z,17.87
2017-05-04T06:06:15.677Z,17.95
2017-05-04T06:07:28.459Z,17.83
2017-05-04T06:08:40.759Z,17.84
2017-05-04T06:09:53.539Z,17.89
2017-05-04T06:11:06.323Z,17.96
2017-05-04T06:12:19.403Z,17.95
2017-05-04T06:13:32.184Z,17.7
2017-05-04T06:14:44.969Z,17.81
2017-05-04T06:15:57.751Z,17.86
2017-05-04T06:17:09.568Z,17.81
2017-05-04T06:18:22.373Z,17.86
2017-05-04T06:19:35.155Z,17.71
2017-05-04T06:20:47.936Z,17.81
2017-05-04T06:22:00.239Z,17.89
2017-05-04T06:23:13.323Z,17.87
2017-05-04T06:24:26.105Z,17.86
2017-05-04T06:25:38.888Z,17.84
2017-05-04T06:26:51.185Z,17.71
2017-05-04T06:28:04.265Z,17.73
2017-05-04T06:29:17.047Z,17.57
2017-05-04T06:30:29.829Z,17.57
2017-05-04T06:31:42.609Z,17.6
2017-05-04T06:32:54.928Z,17.54
2017-05-04T06:34:07.529Z,17.54
2017-05-04T06:35:19.828Z,17.53
2017-05-04T06:36:32.615Z,17.45
2017-05-04T06:37:45.391Z,17.55
2017-05-04T06:38:58.172Z,17.58
2017-05-04T06:40:10.472Z,17.55
2017-05-04T06:41:22.783Z,17.57
2017-05-04T06:42:35.564Z,17.57
2017-05-04T06:43:48.346Z,17.55
2017-05-04T06:45:00.849Z,17.49
2017-05-04T06:46:13.146Z,17.49
2017-05-04T06:47:25.927Z,17.53
2017-05-04T06:48:38.224Z,17.53
2017-05-04T06:49:51.202Z,17.58
2017-05-04T06:51:03.990Z,17.55
2017-05-04T06:52:16.777Z,17.49
2017-05-04T06:53:29.091Z,17.43
2017-05-04T06:54:41.890Z,17.42
2017-05-04T06:55:53.711Z,17.43
2017-05-04T06:57:06.014Z,17.46
2017-05-04T06:58:18.325Z,17.46
2017-05-04T06:59:30.638Z,17.38
2017-05-04T07:00:43.418Z,17.35
2017-05-04T07:01:56.201Z,17.42
2017-05-04T07:03:08.992Z,17.45
2017-05-04T07:04:20.825Z,17.38
2017-05-04T07:05:33.608Z,17.36
2017-05-04T07:06:46.598Z,17.35
2017-05-04T07:07:59.400Z,17.43
2017-05-04T07:09:12.199Z,17.38
2017-05-04T07:10:24.989Z,17.28
2017-05-04T07:11:37.974Z,17.3
2017-05-04T07:12:50.281Z,17.28
2017-05-04T07:14:03.071Z,17.36
2017-05-04T07:15:14.908Z,17.39
2017-05-04T07:16:27.697Z,17.4
2017-05-04T07:17:40.686Z,17.43
2017-05-04T07:18:53.475Z,17.47
2017-05-04T07:20:05.785Z,17.43
2017-05-04T07:21:18.090Z,17.36
2017-05-04T07:22:29.912Z,17.4
2017-05-04T07:23:42.222Z,17.3
2017-05-04T07:24:55.017Z,17.32
2017-05-04T07:26:07.806Z,17.28
2017-05-04T07:27:20.589Z,17.35
2017-05-04T07:28:33.374Z,17.32
2017-05-04T07:29:46.172Z,17.27
2017-05-04T07:30:58.479Z,17.28
2017-05-04T07:32:10.797Z,17.2
2017-05-04T07:33:23.591Z,17.22
2017-05-04T07:34:35.904Z,17.2
2017-05-04T07:35:48.215Z,17.18
2017-05-04T07:37:00.529Z,17.21
2017-05-04T07:38:12.829Z,17.3
2017-05-04T07:39:24.949Z,17.28
2017-05-04T07:40:37.735Z,17.36
2017-05-04T07:41:50.535Z,17.32
2017-05-04T07:43:03.325Z,17.32
2017-05-04T07:44:15.829Z,17.32
2017-05-04T07:45:28.619Z,17.33
2017-05-04T07:46:40.938Z,17.33
2017-05-04T07:47:53.736Z,17.35
2017-05-04T07:49:06.528Z,17.25
2017-05-04T07:50:19.127Z,17.25
2017-05-04T07:51:31.924Z,17.28
2017-05-04T07:52:44.716Z,17.32
2017-05-04T07:53:57.022Z,17.3
2017-05-04T07:55:10.009Z,17.25
2017-05-04T07:56:21.831Z,17.18
2017-05-04T07:57:34.619Z,17.2
2017-05-04T07:58:47.405Z,17.24
2017-05-04T08:00:00.199Z,17.21
2017-05-04T08:01:40.643Z,17.18
2017-05-04T08:02:53.433Z,17.18
2017-05-04T08:04:05.265Z,17.18
2017-05-04T08:05:17.296Z,17.15
2017-05-04T08:06:30.086Z,17.18
2017-05-04T08:07:42.876Z,17.2
2017-05-04T08:08:55.666Z,17.2
2017-05-04T08:10:07.006Z,17.18
2017-05-04T08:11:18.826Z,17.15
2017-05-04T08:12:31.615Z,17.24
2017-05-04T08:13:44.405Z,17.17
2017-05-04T08:14:57.202Z,17.28
2017-05-04T08:16:09.991Z,17.18
2017-05-04T08:17:22.296Z,17.17
2017-05-04T08:18:34.614Z,17.32
2017-05-04T08:19:45.968Z,17.24
2017-05-04T08:20:58.272Z,17.32
2017-05-04T08:22:10.575Z,17.25
2017-05-04T08:23:22.390Z,17.2
2017-05-04T08:24:35.501Z,17.22
2017-05-04T08:25:48.278Z,17.3
2017-05-04T08:27:01.054Z,17.18
2017-05-04T08:28:13.658Z,17.15
2017-05-04T08:29:25.974Z,17.21
2017-05-04T08:30:38.268Z,17.21
2017-05-04T08:31:51.051Z,17.2
2017-05-04T08:33:04.134Z,17.21
2017-05-04T08:34:16.438Z,17.28
2017-05-04T08:35:29.219Z,17.33
2017-05-04T08:36:42.002Z,17.33
2017-05-04T08:37:54.300Z,17.3
2017-05-04T08:39:07.379Z,17.35
2017-05-04T08:40:19.198Z,17.42
2017-05-04T08:41:31.980Z,17.46
2017-05-04T08:42:44.759Z,17.42
2017-05-04T08:43:57.539Z,17.38
2017-05-04T08:45:10.316Z,17.36
2017-05-04T08:46:23.116Z,17.43
2017-05-04T08:47:35.413Z,17.45
2017-05-04T08:48:47.720Z,17.43
2017-05-04T08:50:00.031Z,17.47
2017-05-04T08:51:12.334Z,17.42
2017-05-04T08:52:24.628Z,17.35
2017-05-04T08:53:37.416Z,17.51
2017-05-04T08:54:50.502Z,17.36
2017-05-04T08:56:03.292Z,17.46
2017-05-04T08:57:15.596Z,17.43
2017-05-04T08:58:26.934Z,17.33
2017-05-04T08:59:38.756Z,17.27
2017-05-04T09:00:51.534Z,17.24
2017-05-04T09:02:03.348Z,17.32
2017-05-04T09:03:15.646Z,17.4
2017-05-04T09:04:28.427Z,17.45
2017-05-04T09:05:41.223Z,17.45
2017-05-04T09:06:54.302Z,17.39
2017-05-04T09:08:06.599Z,17.42
2017-05-04T09:09:18.424Z,17.45
2017-05-04T09:10:30.731Z,17.3
2017-05-04T09:11:43.046Z,17.39
2017-05-04T09:12:55.826Z,17.27
2017-05-04T09:14:08.132Z,17.32
2017-05-04T09:15:19.486Z,17.33
2017-05-04T09:16:31.789Z,17.32
2017-05-04T09:17:44.770Z,17.18
2017-05-04T09:18:57.555Z,17.3
2017-05-04T09:20:10.346Z,17.27
2017-05-04T09:21:22.677Z,17.24
2017-05-04T09:22:35.475Z,17.33
2017-05-04T09:23:48.259Z,17.38
2017-05-04T09:25:01.050Z,17.39
2017-05-04T09:26:13.352Z,17.43
2017-05-04T09:27:25.870Z,17.42
2017-05-04T09:28:38.672Z,17.46
2017-05-04T09:29:51.465Z,17.51
2017-05-04T09:31:04.251Z,17.6
2017-05-04T09:32:16.555Z,17.63
2017-05-04T09:33:29.381Z,17.62
2017-05-04T09:34:42.172Z,17.65
2017-05-04T09:35:54.965Z,17.68
2017-05-04T09:37:07.276Z,17.73
2017-05-04T09:38:19.582Z,17.71
2017-05-04T09:39:32.370Z,17.74
2017-05-04T09:40:45.161Z,17.86
2017-05-04T09:41:57.952Z,17.74
2017-05-04T09:43:10.263Z,17.91
2017-05-04T09:44:22.874Z,17.87
2017-05-04T09:45:35.190Z,17.94
2017-05-04T09:46:47.974Z,17.92
2017-05-04T09:48:00.763Z,17.94
2017-05-04T09:49:13.074Z,17.92
2017-05-04T09:50:26.069Z,18.02
2017-05-04T09:51:38.371Z,17.96
2017-05-04T09:52:51.167Z,18.05
2017-05-04T09:54:03.951Z,18.07
2017-05-04T09:55:16.458Z,18.13
2017-05-04T09:56:28.285Z,18.11
2017-05-04T09:57:41.085Z,18.13
2017-05-04T09:58:53.868Z,18.09
2017-05-04T10:00:05.699Z,18.04
2017-05-04T10:01:18.784Z,18.07
2017-05-04T10:02:31.578Z,18.05
2017-05-04T10:03:44.366Z,18.04
2017-05-04T10:04:57.152Z,18.14
2017-05-04T10:06:09.665Z,18.1
2017-05-04T10:07:22.467Z,18.09
2017-05-04T10:08:35.258Z,18.09
2017-05-04T10:09:48.048Z,18.07
2017-05-04T10:11:00.843Z,17.92
2017-05-04T10:12:12.670Z,17.89
2017-05-04T10:13:24.981Z,17.92
2017-05-04T10:14:37.282Z,18.04
2017-05-04T10:15:49.585Z,17.99
2017-05-04T10:17:02.570Z,18.02
2017-05-04T10:18:15.367Z,18.11
2017-05-04T10:19:28.157Z,18.1
2017-05-04T10:20:39.992Z,18.04
2017-05-04T10:21:52.788Z,17.91
2017-05-04T10:23:05.399Z,17.98
2017-05-04T10:24:17.709Z,17.92
2017-05-04T10:25:30.013Z,17.76
2017-05-04T10:26:42.800Z,17.87
2017-05-04T10:27:55.596Z,18.02
2017-05-04T10:29:08.381Z,17.98
2017-05-04T10:30:21.173Z,18.19
2017-05-04T10:31:33.486Z,18.23
2017-05-04T10:32:46.276Z,18.2
2017-05-04T10:33:59.273Z,18.17
2017-05-04T10:35:12.060Z,18.09
2017-05-04T10:36:24.848Z,17.94
2017-05-04T10:37:37.163Z,17.92
2017-05-04T10:38:50.151Z,17.89
2017-05-04T10:40:02.934Z,18.04
2017-05-04T10:41:14.748Z,17.89
2017-05-04T10:42:27.043Z,17.92
2017-05-04T10:43:39.825Z,18.01
2017-05-04T10:44:52.611Z,18.05
2017-05-04T10:46:05.392Z,18.21
2017-05-04T10:47:17.694Z,18.21
2017-05-04T10:48:30.472Z,18.38
2017-05-04T10:49:42.778Z,18.38
2017-05-04T10:50:55.562Z,18.42
2017-05-04T10:52:08.342Z,18.32
2017-05-04T10:53:21.126Z,18.41
2017-05-04T10:54:33.425Z,18.44
2017-05-04T10:55:46.206Z,18.54
2017-05-04T10:56:58.535Z,18.6
2017-05-04T10:58:10.833Z,18.62
2017-05-04T10:59:23.611Z,18.76
2017-05-04T11:00:50.471Z,18.78
2017-05-04T11:02:03.254Z,18.93
2017-05-04T11:03:16.034Z,18.87
2017-05-04T11:04:28.335Z,18.84
2017-05-04T11:05:41.114Z,18.89
2017-05-04T11:06:53.892Z,18.87
2017-05-04T11:08:06.680Z,18.87
2017-05-04T11:09:19.459Z,18.9
2017-05-04T11:10:32.241Z,18.93
2017-05-04T11:11:45.221Z,18.93
2017-05-04T11:12:58.001Z,18.93
2017-05-04T11:14:10.790Z,18.94
2017-05-04T11:15:23.572Z,18.9
2017-05-04T11:16:35.871Z,19.01
2017-05-04T11:17:48.659Z,18.99
2017-05-04T11:19:01.440Z,19.06
2017-05-04T11:20:14.226Z,19.07
2017-05-04T11:21:27.006Z,19.01
2017-05-04T11:22:40.000Z,18.97
2017-05-04T11:23:52.782Z,18.94
2017-05-04T11:25:05.572Z,18.93
2017-05-04T11:26:18.349Z,18.97
2017-05-04T11:27:30.647Z,18.96
2017-05-04T11:28:43.460Z,19.05
2017-05-04T11:29:56.239Z,18.94
2017-05-04T11:31:09.024Z,19.07
2017-05-04T11:32:20.841Z,19.1
2017-05-04T11:33:33.925Z,19.15
2017-05-04T11:34:46.707Z,19.28
2017-05-04T11:35:59.496Z,19.34
2017-05-04T11:37:12.274Z,19.52
2017-05-04T11:38:24.781Z,19.67
2017-05-04T11:39:37.079Z,19.67
2017-05-04T11:40:49.383Z,19.8
2017-05-04T11:42:02.172Z,19.82
2017-05-04T11:43:14.469Z,19.92
2017-05-04T11:44:26.792Z,20.15
2017-05-04T11:45:39.576Z,20.15
2017-05-04T11:46:51.870Z,20.35
2017-05-04T11:48:04.170Z,20.42
2017-05-04T11:49:16.478Z,20.57
2017-05-04T11:50:29.259Z,20.71
2017-05-04T11:51:42.074Z,20.88
2017-05-04T11:52:54.860Z,20.88
2017-05-04T11:54:07.648Z,21.05
2017-05-04T11:55:19.957Z,21.01
2017-05-04T11:56:32.263Z,21.01
2017-05-04T11:57:45.056Z,21.06
2017-05-04T11:58:57.839Z,21.18
2017-05-04T12:00:10.342Z,21.21
2017-05-04T12:01:22.158Z,21.38
2017-05-04T12:02:34.937Z,21.59
2017-05-04T12:03:47.239Z,21.51
2017-05-04T12:04:59.540Z,21.46
2017-05-04T12:06:12.322Z,21.48
2017-05-04T12:07:24.141Z,21.45
2017-05-04T12:08:36.923Z,21.49
2017-05-04T12:09:49.711Z,21.49
2017-05-04T12:11:02.495Z,21.58
2017-05-04T12:12:14.800Z,21.63
2017-05-04T12:13:27.100Z,21.81
2017-05-04T12:14:39.402Z,21.89
2017-05-04T12:15:51.712Z,21.96
2017-05-04T12:17:04.693Z,22.01
2017-05-04T12:18:17.475Z,22.08
2017-05-04T12:19:29.294Z,22.2
2017-05-04T12:20:42.080Z,22.35
2017-05-04T12:21:55.061Z,22.44
2017-05-04T12:23:07.847Z,22.46
2017-05-04T12:24:20.145Z,22.49
2017-05-04T12:25:32.452Z,22.48
2017-05-04T12:26:44.755Z,22.41
2017-05-04T12:27:57.259Z,22.57
2017-05-04T12:29:10.044Z,22.64
2017-05-04T12:30:21.864Z,22.76
2017-05-04T12:31:34.679Z,22.91
2017-05-04T12:32:46.996Z,22.94
2017-05-04T12:33:59.787Z,23.14
2017-05-04T12:35:12.091Z,22.99
2017-05-04T12:36:24.886Z,22.99
2017-05-04T12:37:37.192Z,23.07
2017-05-04T12:38:49.978Z,23.23
2017-05-04T12:40:02.762Z,23.21
2017-05-04T12:41:14.587Z,23.09
2017-05-04T12:42:27.375Z,22.91
2017-05-04T12:43:40.161Z,22.86
2017-05-04T12:44:52.945Z,22.99
2017-05-04T12:46:05.740Z,23.06
2017-05-04T12:47:18.044Z,23.18
2017-05-04T12:48:30.831Z,23.41
2017-05-04T12:49:43.819Z,23.49
2017-05-04T12:50:56.601Z,23.53
2017-05-04T12:52:09.387Z,23.47
2017-05-04T12:53:21.688Z,23.49
2017-05-04T12:54:33.990Z,23.29
2017-05-04T12:55:45.810Z,23.26
2017-05-04T12:56:58.599Z,23.35
2017-05-04T12:58:10.421Z,23.49
2017-05-04T12:59:22.245Z,23.54
2017-05-04T13:00:34.073Z,23.56
2017-05-04T13:01:46.857Z,23.74
2017-05-04T13:02:59.642Z,23.75
2017-05-04T13:04:12.435Z,23.89
2017-05-04T13:05:25.224Z,23.96
2017-05-04T13:06:37.835Z,24.12
2017-05-04T13:07:50.620Z,24.18
2017-05-04T13:09:03.408Z,24.36
2017-05-04T13:10:15.717Z,24.45
2017-05-04T13:11:28.230Z,24.51
2017-05-04T13:12:40.533Z,24.53
2017-05-04T13:13:53.329Z,24.68
2017-05-04T13:15:06.114Z,24.75
2017-05-04T13:16:17.943Z,24.66
2017-05-04T13:17:30.732Z,24.79
2017-05-04T13:18:43.520Z,24.93
2017-05-04T13:19:55.826Z,24.93
2017-05-04T13:21:07.649Z,24.9
2017-05-04T13:22:20.442Z,24.89
2017-05-04T13:23:33.229Z,25.02
2017-05-04T13:24:46.015Z,25.14
2017-05-04T13:25:58.317Z,25.22
2017-05-04T13:27:11.106Z,25.11
2017-05-04T13:28:23.418Z,25.02
2017-05-04T13:29:36.206Z,25.05
2017-05-04T13:30:48.508Z,24.98
2017-05-04T13:32:01.297Z,25.08
2017-05-04T13:33:14.083Z,25.16
2017-05-04T13:34:26.393Z,25.2
2017-05-04T13:35:38.694Z,25.29
2017-05-04T13:36:50.999Z,25.44
2017-05-04T13:38:03.784Z,25.48
2017-05-04T13:39:16.577Z,25.6
2017-05-04T13:40:29.368Z,25.61
2017-05-04T13:41:42.159Z,25.67
2017-05-04T13:42:54.667Z,25.79
2017-05-04T13:44:06.971Z,25.89
2017-05-04T13:45:19.284Z,25.98
2017-05-04T13:46:32.072Z,26.08
2017-05-04T13:47:44.861Z,26.16
2017-05-04T13:48:57.851Z,26.23
2017-05-04T13:50:10.165Z,26.21
2017-05-04T13:51:22.953Z,26.32
2017-05-04T13:52:35.741Z,26.2
2017-05-04T13:53:48.535Z,26.09
2017-05-04T13:55:00.856Z,26.09
2017-05-04T13:56:13.662Z,26.09
2017-05-04T13:57:26.483Z,25.98
2017-05-04T13:58:39.275Z,25.91
2017-05-04T13:59:52.067Z,25.9
2017-05-04T14:01:04.862Z,26.04
2017-05-04T14:02:17.175Z,26.04
2017-05-04T14:03:29.496Z,26.04
2017-05-04T14:04:42.304Z,26.08
2017-05-04T14:05:55.108Z,26.19
2017-05-04T14:07:07.900Z,26.31
2017-05-04T14:08:20.211Z,26.57
2017-05-04T14:09:32.519Z,26.59
2017-05-04T14:10:44.839Z,26.39
2017-05-04T14:11:57.634Z,26.17
2017-05-04T14:13:10.422Z,26.27
2017-05-04T14:14:23.228Z,26.06
2017-05-04T14:15:36.040Z,25.9
2017-05-04T14:16:48.362Z,25.76
2017-05-04T14:18:01.164Z,25.59
2017-05-04T14:19:13.475Z,25.6
2017-05-04T14:20:25.782Z,25.82
2017-05-04T14:21:38.580Z,25.81
2017-05-04T14:22:51.377Z,25.64
2017-05-04T14:24:04.184Z,25.86
2017-05-04T14:25:16.502Z,25.78
2017-05-04T14:26:28.812Z,25.71
2017-05-04T14:27:41.624Z,25.76
2017-05-04T14:28:53.939Z,25.91
2017-05-04T14:30:06.263Z,25.59
2017-05-04T14:31:18.094Z,25.59
2017-05-04T14:32:30.896Z,25.64
2017-05-04T14:33:43.690Z,25.61
2017-05-04T14:34:56.202Z,25.67
2017-05-04T14:36:08.990Z,25.89
2017-05-04T14:37:21.789Z,26.2
2017-05-04T14:38:34.141Z,26.08
2017-05-04T14:39:46.941Z,25.94
2017-05-04T14:40:59.748Z,25.57
2017-05-04T14:42:12.541Z,25.38
2017-05-04T14:43:25.369Z,25.24
2017-05-04T14:44:38.168Z,25.36
2017-05-04T14:45:50.959Z,25.3
2017-05-04T14:47:03.746Z,25.27
2017-05-04T14:48:15.571Z,25.36
2017-05-04T14:49:27.893Z,25.44
2017-05-04T14:50:40.696Z,25.31
2017-05-04T14:51:53.498Z,25.29
2017-05-04T14:53:06.288Z,25.16
2017-05-04T14:54:19.081Z,25.12
2017-05-04T14:55:31.878Z,25.14
2017-05-04T14:56:44.680Z,25.26
2017-05-04T14:57:56.521Z,25.22
2017-05-04T14:59:09.348Z,25.11
2017-05-04T15:00:21.177Z,25.04
2017-05-04T15:01:33.482Z,24.99
2017-05-04T15:02:46.472Z,25.09
2017-05-04T15:03:58.782Z,25.14
2017-05-04T15:05:11.097Z,25.17
2017-05-04T15:06:23.898Z,25.34
2017-05-04T15:07:36.414Z,25.34
2017-05-04T15:08:49.206Z,25.42
2017-05-04T15:10:02.008Z,25.48
2017-05-04T15:11:14.318Z,25.46
2017-05-04T15:12:27.125Z,25.45
2017-05-04T15:13:39.442Z,25.49
2017-05-04T15:14:52.286Z,25.51
2017-05-04T15:16:05.074Z,25.59
2017-05-04T15:17:16.418Z,25.45
2017-05-04T15:18:28.722Z,25.6
2017-05-04T15:19:41.025Z,25.53
2017-05-04T15:20:53.817Z,25.56
2017-05-04T15:22:06.610Z,25.38
2017-05-04T15:23:18.925Z,25.46
2017-05-04T15:24:31.917Z,25.31
2017-05-04T15:25:44.231Z,25.26
2017-05-04T15:26:57.024Z,25.27
2017-05-04T15:28:09.812Z,25.41
2017-05-04T15:29:21.646Z,25.35
2017-05-04T15:30:33.955Z,25.41
2017-05-04T15:31:46.743Z,25.48
2017-05-04T15:32:59.053Z,25.45
2017-05-04T15:34:10.876Z,25.44
2017-05-04T15:35:23.667Z,25.54
2017-05-04T15:36:35.973Z,25.54
2017-05-04T15:37:48.763Z,25.54
2017-05-04T15:39:01.466Z,25.51